Time,TemperatureF,DewpointF,PressureIn,WindDirection,WindDirectionDegrees,WindSpeedMPH,WindSpeedGustMPH,Humidity,HourlyPrecipIn,Conditions,Clouds,dailyrainin,SoftwareType,DateUTC
2013-01-03 08:30:00,-6.2,-11.8,30.89,WSW,248,0.0,1.0,76,0.00,,---,0.00,VWS V14.01,2013-01-03 15:30:00,
2013-01-03 08:43:00,-5.2,-11.1,30.88,WSW,257,0.0,0.0,75,0.00,,---,0.00,VWS V14.01,2013-01-03 15:43:00,
2013-01-03 08:45:00,-5.0,-10.6,30.88,WSW,257,0.0,0.0,76,0.00,,---,0.00,VWS V14.01,2013-01-03 15:45:00,
2013-01-03 08:50:00,-4.8,-10.7,30.88,WSW,257,0.0,0.0,75,0.00,,---,0.00,VWS V14.01,2013-01-03 15:50:00,
2013-01-03 08:55:00,-4.4,-10.3,30.89,WSW,257,0.0,0.0,75,0.00,,---,0.00,VWS V14.01,2013-01-03 15:55:00,
2013-01-03 09:00:00,-3.9,-9.5,30.89,WSW,257,0.0,2.0,76,0.00,,---,0.00,VWS V14.01,2013-01-03 16:00:00,
2013-01-03 09:05:00,-3.2,-8.9,30.89,WSW,257,0.0,2.0,76,0.00,,---,0.00,VWS V14.01,2013-01-03 16:05:00,
2013-01-03 09:10:00,-2.2,-7.9,30.89,WSW,257,0.0,0.0,76,0.00,,---,0.00,VWS V14.01,2013-01-03 16:10:00,
2013-01-03 09:15:00,-0.7,-6.4,30.86,WSW,257,0.0,0.0,76,0.00,,---,0.00,VWS V14.01,2013-01-03 16:15:00,
2013-01-03 09:20:00,1.3,-4.2,30.84,WSW,257,0.0,0.0,77,0.00,,---,0.00,VWS V14.01,2013-01-03 16:20:00,
2013-01-03 09:25:00,2.1,-3.7,30.84,WSW,257,0.0,0.0,76,0.00,,---,0.00,VWS V14.01,2013-01-03 16:25:00,
2013-01-03 09:30:00,2.8,-3.0,30.82,WSW,257,0.0,0.0,76,0.00,,---,0.00,VWS V14.01,2013-01-03 16:30:00,
2013-01-03 09:35:00,4.0,-1.6,30.82,WSW,257,0.0,0.0,77,0.00,,---,0.00,VWS V14.01,2013-01-03 16:35:00,
2013-01-03 09:40:00,5.4,-0.2,30.80,WSW,257,0.0,0.0,77,0.00,,---,0.00,VWS V14.01,2013-01-03 16:40:00,
2013-01-03 09:45:00,6.2,0.3,30.81,WSW,257,0.0,0.0,76,0.00,,---,0.00,VWS V14.01,2013-01-03 16:45:00,
2013-01-03 09:50:00,5.4,-1.9,30.81,WSW,257,1.0,2.0,71,0.00,,---,0.00,VWS V14.01,2013-01-03 16:50:00,
2013-01-03 09:55:00,3.8,-4.1,30.83,WSW,257,0.0,0.0,69,0.00,,---,0.00,VWS V14.01,2013-01-03 16:55:00,
2013-01-03 10:00:00,3.1,-4.5,30.83,WSW,257,0.0,0.0,70,0.00,,---,0.00,VWS V14.01,2013-01-03 17:00:00,
2013-01-03 10:05:00,2.8,-4.8,30.83,WSW,257,0.0,0.0,70,0.00,,---,0.00,VWS V14.01,2013-01-03 17:05:00,
2013-01-03 10:10:00,2.8,-4.8,30.87,WSW,257,0.0,0.0,70,0.00,,---,0.00,VWS V14.01,2013-01-03 17:10:00,
2013-01-03 10:15:00,2.9,-4.4,30.87,WSW,257,0.0,0.0,71,0.00,,---,0.00,VWS V14.01,2013-01-03 17:15:00,
2013-01-03 10:20:00,3.9,-3.4,30.84,WSW,257,1.0,1.0,71,0.00,,---,0.00,VWS V14.01,2013-01-03 17:20:00,
2013-01-03 10:25:00,4.7,-2.9,30.84,WSW,257,0.0,0.0,70,0.00,,---,0.00,VWS V14.01,2013-01-03 17:25:00,
2013-01-03 10:30:00,5.8,-2.2,30.82,WSW,257,0.0,0.0,69,0.00,,---,0.00,VWS V14.01,2013-01-03 17:30:00,
2013-01-03 10:35:00,6.4,-1.9,30.82,WSW,257,0.0,0.0,68,0.00,,---,0.00,VWS V14.01,2013-01-03 17:35:00,
2013-01-03 10:40:00,7.3,-1.0,30.82,WSW,257,0.0,0.0,68,0.00,,---,0.00,VWS V14.01,2013-01-03 17:40:00,
2013-01-03 10:45:00,8.2,-0.5,30.80,WSW,257,1.0,1.0,67,0.00,,---,0.00,VWS V14.01,2013-01-03 17:45:00,
2013-01-03 10:50:00,8.5,-0.8,30.79,WSW,257,0.0,0.0,65,0.00,,---,0.00,VWS V14.01,2013-01-03 17:50:00,
2013-01-03 10:55:00,9.0,-0.4,30.79,WSW,257,0.0,1.0,65,0.00,,---,0.00,VWS V14.01,2013-01-03 17:55:00,
2013-01-03 11:01:00,9.8,0.7,30.77,WSW,257,0.0,0.0,66,0.00,,---,0.00,VWS V14.01,2013-01-03 18:01:00,
2013-01-03 11:06:00,10.8,0.7,30.75,WSW,257,1.0,1.0,63,0.00,,---,0.00,VWS V14.01,2013-01-03 18:06:00,
2013-01-03 11:11:00,11.5,1.0,30.75,WSW,257,0.0,1.0,62,0.00,,---,0.00,VWS V14.01,2013-01-03 18:11:00,
2013-01-03 11:16:00,12.7,1.8,30.72,WSW,257,0.0,0.0,61,0.00,,---,0.00,VWS V14.01,2013-01-03 18:16:00,
2013-01-03 11:21:00,14.1,2.4,30.72,WSW,257,0.0,0.0,59,0.00,,---,0.00,VWS V14.01,2013-01-03 18:21:00,
2013-01-03 11:26:00,15.4,2.9,30.70,WSW,257,2.0,2.0,57,0.00,,---,0.00,VWS V14.01,2013-01-03 18:26:00,
2013-01-03 11:31:00,16.7,2.5,30.69,WSW,257,0.0,2.0,53,0.00,,---,0.00,VWS V14.01,2013-01-03 18:31:00,
2013-01-03 11:36:00,16.9,1.5,30.67,WSW,257,2.0,2.0,50,0.00,,---,0.00,VWS V14.01,2013-01-03 18:36:00,
2013-01-03 11:41:00,17.3,1.9,30.66,WSW,257,0.0,1.0,50,0.00,,---,0.00,VWS V14.01,2013-01-03 18:41:00,
2013-01-03 11:46:00,17.0,0.7,30.66,WSW,257,2.0,3.0,48,0.00,,---,0.00,VWS V14.01,2013-01-03 18:46:00,
2013-01-03 11:51:00,16.6,0.3,30.65,WSW,257,2.0,5.0,48,0.00,,---,0.00,VWS V14.01,2013-01-03 18:51:00,
2013-01-03 11:56:00,16.6,0.3,30.65,WSW,257,0.0,0.0,48,0.00,,---,0.00,VWS V14.01,2013-01-03 18:56:00,
2013-01-03 12:01:00,17.4,2.0,30.65,WSW,257,0.0,0.0,50,0.00,,---,0.00,VWS V14.01,2013-01-03 19:01:00,
2013-01-03 12:06:00,18.0,2.1,30.64,WSW,257,4.0,4.0,49,0.00,,---,0.00,VWS V14.01,2013-01-03 19:06:00,
2013-01-03 12:11:00,18.2,1.8,30.64,WSW,257,0.0,1.0,48,0.00,,---,0.00,VWS V14.01,2013-01-03 19:11:00,
2013-01-03 12:16:00,19.0,2.1,30.64,WSW,257,0.0,0.0,47,0.00,,---,0.00,VWS V14.01,2013-01-03 19:16:00,
2013-01-03 12:51:00,20.1,2.2,30.60,WSW,257,0.0,1.0,45,0.00,,---,0.00,VWS V14.01,2013-01-03 19:51:00,
2013-01-03 12:56:00,21.1,2.6,30.59,WSW,257,0.0,1.0,44,0.00,,---,0.00,VWS V14.01,2013-01-03 19:56:00,
2013-01-03 13:01:00,21.8,2.8,30.58,WSW,257,4.0,4.0,43,0.00,,---,0.00,VWS V14.01,2013-01-03 20:01:00,
2013-01-03 13:06:00,21.4,2.4,30.63,WSW,257,5.0,5.0,43,0.00,,---,0.00,VWS V14.01,2013-01-03 20:06:00,
2013-01-03 13:11:00,20.4,1.5,30.65,WSW,257,2.0,4.0,43,0.00,,---,0.00,VWS V14.01,2013-01-03 20:11:00,
2013-01-03 23:10:00,1.2,-11.2,30.64,WSW,248,0.0,2.0,55,0.00,,---,0.00,VWS V14.01,2013-01-04 06:10:00,
2013-01-03 23:24:00,1.2,-11.2,30.64,WSW,248,0.0,2.0,55,0.00,,---,0.00,VWS V14.01,2013-01-04 06:24:00,
2013-01-03 23:25:00,1.4,-10.6,30.64,WSW,257,0.0,0.0,56,0.00,,---,0.00,VWS V14.01,2013-01-04 06:25:00,